Time,TemperatureF,DewpointF,PressureIn,WindDirection,WindDirectionDegrees,WindSpeedMPH,WindSpeedGustMPH,Humidity,HourlyPrecipIn,Conditions,Clouds,dailyrainin,SoftwareType,DateUTC
2013-04-02 00:17:00,39.7,31.0,30.15,NNE,22,1.0,4.0,70,0.00,,,0.00,weatherlink.com 1.10,2013-04-02 05:17:00,
2013-04-02 00:32:00,39.4,30.0,30.15,NNE,22,2.0,4.0,70,0.00,,,0.00,weatherlink.com 1.10,2013-04-02 05:32:00,
2013-04-02 00:47:00,39.3,31.0,30.15,NNE,22,1.0,2.0,71,0.00,,,0.00,weatherlink.com 1.10,2013-04-02 05:47:00,
2013-04-02 01:02:00,38.3,30.0,30.16,NNE,22,2.0,4.0,73,0.00,,,0.00,weatherlink.com 1.10,2013-04-02 06:02:00,
2013-04-02 01:17:00,39.2,31.0,30.16,NNE,22,0.0,1.0,73,0.00,,,0.00,weatherlink.com 1.10,2013-04-02 06:17:00,
2013-04-02 01:32:00,40.7,31.0,30.16,NNE,28,2.0,7.0,69,0.00,,,0.00,weatherlink.com 1.10,2013-04-02 06:32:00,
2013-04-02 01:47:00,41.0,32.0,30.16,NNE,30,2.0,7.0,71,0.00,,,0.00,weatherlink.com 1.10,2013-04-02 06:47:00,
2013-04-02 02:17:00,41.2,31.0,30.18,NNE,19,1.0,8.0,68,0.00,,,0.00,weatherlink.com 1.10,2013-04-02 07:17:00,
2013-04-02 02:32:00,41.3,31.0,30.18,NNE,15,1.0,6.0,68,0.00,,,0.00,weatherlink.com 1.10,2013-04-02 07:32:00,
2013-04-02 02:47:00,41.1,31.0,30.19,North,5,2.0,5.0,67,0.00,,,0.00,weatherlink.com 1.10,2013-04-02 07:47:00,
2013-04-02 03:02:00,41.2,30.0,30.19,NNE,12,4.0,6.0,65,0.00,,,0.00,weatherlink.com 1.10,2013-04-02 08:02:00,
2013-04-02 03:17:00,41.2,30.0,30.19,NNE,20,1.0,7.0,64,0.00,,,0.00,weatherlink.com 1.10,2013-04-02 08:17:00,
2013-04-02 03:32:00,41.2,29.0,30.19,NNE,18,5.0,7.0,63,0.00,,,0.00,weatherlink.com 1.10,2013-04-02 08:32:00,
2013-04-02 03:47:00,41.0,30.0,30.19,NE,46,4.0,8.0,64,0.00,,,0.00,weatherlink.com 1.10,2013-04-02 08:47:00,
2013-04-02 04:02:00,40.9,29.0,30.19,NNE,26,2.0,6.0,64,0.00,,,0.00,weatherlink.com 1.10,2013-04-02 09:02:00,
2013-04-02 04:17:00,40.5,30.0,30.20,NNE,33,1.0,4.0,66,0.00,,,0.00,weatherlink.com 1.10,2013-04-02 09:17:00,
2013-04-02 04:32:00,40.0,30.0,30.20,NNE,33,1.0,3.0,68,0.00,,,0.00,weatherlink.com 1.10,2013-04-02 09:32:00,
2013-04-02 04:47:00,40.3,29.0,30.20,NNE,28,5.0,6.0,65,0.00,,,0.00,weatherlink.com 1.10,2013-04-02 09:47:00,
2013-04-02 05:02:00,40.6,28.0,30.20,NNE,30,2.0,6.0,62,0.00,,,0.00,weatherlink.com 1.10,2013-04-02 10:02:00,
2013-04-02 05:17:00,40.6,28.0,30.20,NNE,25,3.0,7.0,61,0.00,,,0.00,weatherlink.com 1.10,2013-04-02 10:17:00,
2013-04-02 05:32:00,40.6,28.0,30.21,NE,48,3.0,7.0,62,0.00,,,0.00,weatherlink.com 1.10,2013-04-02 10:32:00,
2013-04-02 05:47:00,40.6,25.0,30.21,NNE,19,3.0,9.0,55,0.00,,,0.00,weatherlink.com 1.10,2013-04-02 10:47:00,
2013-04-02 06:02:00,40.4,25.0,30.21,NNE,20,4.0,8.0,54,0.00,,,0.00,weatherlink.com 1.10,2013-04-02 11:02:00,
2013-04-02 06:17:00,40.3,25.0,30.22,NNE,15,3.0,9.0,55,0.00,,,0.00,weatherlink.com 1.10,2013-04-02 11:17:00,
2013-04-02 06:32:00,40.1,25.0,30.23,NE,34,2.0,6.0,55,0.00,,,0.00,weatherlink.com 1.10,2013-04-02 11:32:00,
2013-04-02 06:47:00,40.0,24.0,30.24,NNE,32,5.0,8.0,54,0.00,,,0.00,weatherlink.com 1.10,2013-04-02 11:47:00,
2013-04-02 07:02:00,39.8,26.0,30.24,NNE,28,2.0,7.0,57,0.00,,,0.00,weatherlink.com 1.10,2013-04-02 12:02:00,
2013-04-02 07:18:00,39.6,25.0,30.25,NE,34,2.0,8.0,56,0.00,,,0.00,weatherlink.com 1.10,2013-04-02 12:18:00,
2013-04-02 07:33:00,39.4,26.0,30.25,NE,46,2.0,7.0,58,0.00,,,0.00,weatherlink.com 1.10,2013-04-02 12:33:00,
2013-04-02 07:48:00,39.3,26.0,30.25,ENE,74,6.0,7.0,59,0.00,,,0.00,weatherlink.com 1.10,2013-04-02 12:48:00,
2013-04-02 08:03:00,39.4,26.0,30.25,ENE,59,2.0,9.0,60,0.00,,,0.00,weatherlink.com 1.10,2013-04-02 13:03:00,
2013-04-02 08:18:00,39.6,26.0,30.26,NNE,24,2.0,10.0,58,0.00,,,0.00,weatherlink.com 1.10,2013-04-02 13:18:00,
2013-04-02 08:33:00,39.9,26.0,30.27,ENE,77,6.0,8.0,58,0.00,,,0.00,weatherlink.com 1.10,2013-04-02 13:33:00,
2013-04-02 08:48:00,40.0,26.0,30.27,NNE,27,4.0,8.0,57,0.00,,,0.00,weatherlink.com 1.10,2013-04-02 13:48:00,
2013-04-02 09:03:00,41.6,25.0,30.26,NE,45,3.0,10.0,53,0.00,,,0.00,weatherlink.com 1.10,2013-04-02 14:03:00,
2013-04-02 09:18:00,41.8,25.0,30.26,NE,38,4.0,10.0,51,0.00,,,0.00,weatherlink.com 1.10,2013-04-02 14:18:00,
2013-04-02 09:33:00,42.9,26.0,30.27,ENE,76,5.0,8.0,52,0.00,,,0.00,weatherlink.com 1.10,2013-04-02 14:33:00,
2013-04-02 09:48:00,43.3,25.0,30.27,NE,42,5.0,10.0,48,0.00,,,0.00,weatherlink.com 1.10,2013-04-02 14:48:00,
2013-04-02 10:03:00,43.1,23.0,30.27,ESE,112,5.0,7.0,46,0.00,,,0.00,weatherlink.com 1.10,2013-04-02 15:03:00,
2013-04-02 10:18:00,42.9,24.0,30.27,ENE,59,1.0,8.0,47,0.00,,,0.00,weatherlink.com 1.10,2013-04-02 15:18:00,
2013-04-02 10:33:00,43.8,24.0,30.26,ESE,103,4.0,12.0,46,0.00,,,0.00,weatherlink.com 1.10,2013-04-02 15:33:00,
2013-04-02 10:48:00,44.1,25.0,30.26,North,10,7.0,10.0,47,0.00,,,0.00,weatherlink.com 1.10,2013-04-02 15:48:00,
2013-04-02 11:03:00,44.3,26.0,30.26,NNE,18,4.0,9.0,49,0.00,,,0.00,weatherlink.com 1.10,2013-04-02 16:03:00,
2013-04-02 11:18:00,44.6,25.0,30.26,ENE,75,7.0,10.0,46,0.00,,,0.00,weatherlink.com 1.10,2013-04-02 16:18:00,
2013-04-02 11:33:00,44.9,25.0,30.25,NNE,13,4.0,8.0,45,0.00,,,0.00,weatherlink.com 1.10,2013-04-02 16:33:00,
2013-04-02 11:48:00,45.5,23.0,30.25,North,5,4.0,12.0,42,0.00,,,0.00,weatherlink.com 1.10,2013-04-02 16:48:00,
2013-04-02 12:03:00,45.5,26.0,30.24,NNE,19,4.0,9.0,46,0.00,,,0.00,weatherlink.com 1.10,2013-04-02 17:03:00,
2013-04-02 12:18:00,45.0,24.0,30.24,NNE,32,3.0,8.0,44,0.00,,,0.00,weatherlink.com 1.10,2013-04-02 17:18:00,
2013-04-02 12:33:00,45.6,23.0,30.25,North,10,2.0,9.0,41,0.00,,,0.00,weatherlink.com 1.10,2013-04-02 17:33:00,
2013-04-02 12:48:00,45.3,23.0,30.25,NNE,21,5.0,6.0,42,0.00,,,0.00,weatherlink.com 1.10,2013-04-02 17:48:00,
2013-04-02 13:03:00,45.3,23.0,30.24,North,360,1.0,6.0,42,0.00,,,0.00,weatherlink.com 1.10,2013-04-02 18:03:00,
2013-04-02 13:18:00,44.9,23.0,30.24,NE,36,2.0,3.0,43,0.00,,,0.00,weatherlink.com 1.10,2013-04-02 18:18:00,
2013-04-02 13:33:00,45.1,21.0,30.23,NE,39,0.0,4.0,39,0.00,,,0.00,weatherlink.com 1.10,2013-04-02 18:33:00,
2013-04-02 13:48:00,45.2,23.0,30.23,NE,39,0.0,4.0,41,0.00,,,0.00,weatherlink.com 1.10,2013-04-02 18:48:00,
2013-04-02 14:03:00,45.2,23.0,30.23,NE,38,1.0,2.0,41,0.00,,,0.00,weatherlink.com 1.10,2013-04-02 19:03:00,
2013-04-02 14:18:00,45.6,22.0,30.23,North,360,1.0,6.0,40,0.00,,,0.00,weatherlink.com 1.10,2013-04-02 19:18:00,
2013-04-02 14:33:00,45.6,22.0,30.23,North,355,1.0,7.0,40,0.00,,,0.00,weatherlink.com 1.10,2013-04-02 19:33:00,
2013-04-02 14:48:00,45.2,25.0,30.22,North,355,5.0,8.0,46,0.00,,,0.00,weatherlink.com 1.10,2013-04-02 19:48:00,
2013-04-02 15:03:00,45.4,24.0,30.22,North,360,4.0,7.0,43,0.00,,,0.00,weatherlink.com 1.10,2013-04-02 20:03:00,
2013-04-02 15:18:00,45.3,23.0,30.22,NNW,344,1.0,6.0,42,0.00,,,0.00,weatherlink.com 1.10,2013-04-02 20:18:00,
2013-04-02 15:33:00,45.3,24.0,30.21,NNE,19,1.0,5.0,44,0.00,,,0.00,weatherlink.com 1.10,2013-04-02 20:33:00,
2013-04-02 15:48:00,45.2,25.0,30.22,North,5,3.0,6.0,45,0.00,,,0.00,weatherlink.com 1.10,2013-04-02 20:48:00,
2013-04-02 16:04:00,45.2,23.0,30.21,North,11,2.0,5.0,41,0.00,,,0.00,weatherlink.com 1.10,2013-04-02 21:04:00,
2013-04-02 16:19:00,45.3,25.0,30.21,NNW,339,0.0,5.0,45,0.00,,,0.00,weatherlink.com 1.10,2013-04-02 21:19:00,
2013-04-02 16:33:00,45.4,24.0,30.21,NNW,345,2.0,7.0,44,0.00,,,0.00,weatherlink.com 1.10,2013-04-02 21:33:00,
2013-04-02 16:48:00,45.5,25.0,30.21,NE,42,2.0,5.0,45,0.00,,,0.00,weatherlink.com 1.10,2013-04-02 21:48:00,
2013-04-02 17:03:00,45.5,26.0,30.21,North,360,4.0,5.0,46,0.00,,,0.00,weatherlink.com 1.10,2013-04-02 22:03:00,
2013-04-02 17:18:00,45.5,25.0,30.21,North,360,2.0,5.0,45,0.00,,,0.00,weatherlink.com 1.10,2013-04-02 22:18:00,
2013-04-02 17:33:00,45.4,26.0,30.21,NNE,19,1.0,4.0,46,0.00,,,0.00,weatherlink.com 1.10,2013-04-02 22:33:00,
2013-04-02 17:49:00,45.5,25.0,30.20,NE,36,0.0,5.0,45,0.00,,,0.00,weatherlink.com 1.10,2013-04-02 22:49:00,
2013-04-02 18:04:00,45.4,26.0,30.21,North,355,4.0,6.0,46,0.00,,,0.00,weatherlink.com 1.10,2013-04-02 23:04:00,
2013-04-02 18:19:00,45.2,26.0,30.21,NE,35,2.0,6.0,47,0.00,,,0.00,weatherlink.com 1.10,2013-04-02 23:19:00,
2013-04-02 18:34:00,45.0,27.0,30.21,North,360,2.0,5.0,49,0.00,,,0.00,weatherlink.com 1.10,2013-04-02 23:34:00,
2013-04-02 18:49:00,45.0,26.0,30.22,North,355,2.0,5.0,48,0.00,,,0.00,weatherlink.com 1.10,2013-04-02 23:49:00,
2013-04-02 19:19:00,44.3,28.0,30.22,North,355,0.0,4.0,53,0.00,,,0.00,weatherlink.com 1.10,2013-04-03 00:19:00,
2013-04-02 19:34:00,44.2,27.0,30.22,North,355,0.0,2.0,52,0.00,,,0.00,weatherlink.com 1.10,2013-04-03 00:34:00,
2013-04-02 19:49:00,43.6,31.0,30.23,North,355,0.0,1.0,61,0.00,,,0.00,weatherlink.com 1.10,2013-04-03 00:49:00,
2013-04-02 20:04:00,43.5,29.0,30.23,North,355,0.0,1.0,56,0.00,,,0.00,weatherlink.com 1.10,2013-04-03 01:04:00,
2013-04-02 20:19:00,42.8,30.0,30.22,North,355,0.0,0.0,62,0.00,,,0.00,weatherlink.com 1.10,2013-04-03 01:19:00,
2013-04-02 20:34:00,42.5,29.0,30.23,North,355,0.0,0.0,60,0.00,,,0.00,weatherlink.com 1.10,2013-04-03 01:34:00,
2013-04-02 20:49:00,41.7,29.0,30.23,North,355,0.0,0.0,60,0.00,,,0.00,weatherlink.com 1.10,2013-04-03 01:49:00,
2013-04-02 21:04:00,40.6,30.0,30.23,North,355,0.0,0.0,65,0.00,,,0.00,weatherlink.com 1.10,2013-04-03 02:04:00,
2013-04-02 21:19:00,39.8,31.0,30.23,North,355,0.0,0.0,70,0.00,,,0.00,weatherlink.com 1.10,2013-04-03 02:19:00,
2013-04-02 21:34:00,39.4,28.0,30.24,North,355,0.0,0.0,63,0.00,,,0.00,weatherlink.com 1.10,2013-04-03 02:34:00,
2013-04-02 21:49:00,39.3,29.0,30.24,North,355,0.0,0.0,67,0.00,,,0.00,weatherlink.com 1.10,2013-04-03 02:49:00,
2013-04-02 22:04:00,38.8,30.0,30.24,North,355,0.0,2.0,72,0.00,,,0.00,weatherlink.com 1.10,2013-04-03 03:04:00,
2013-04-02 22:19:00,38.7,29.0,30.24,North,355,1.0,2.0,69,0.00,,,0.00,weatherlink.com 1.10,2013-04-03 03:19:00,
2013-04-02 22:34:00,38.5,30.0,30.24,North,355,1.0,2.0,71,0.00,,,0.00,weatherlink.com 1.10,2013-04-03 03:34:00,
2013-04-02 22:49:00,38.9,28.0,30.24,North,355,2.0,3.0,66,0.00,,,0.00,weatherlink.com 1.10,2013-04-03 03:49:00,
2013-04-02 23:04:00,38.8,27.0,30.24,North,355,0.0,1.0,64,0.00,,,0.00,weatherlink.com 1.10,2013-04-03 04:04:00,
2013-04-02 23:19:00,37.9,29.0,30.24,North,355,0.0,0.0,69,0.00,,,0.00,weatherlink.com 1.10,2013-04-03 04:19:00,
2013-04-02 23:34:00,37.4,27.0,30.24,North,355,0.0,0.0,65,0.00,,,0.00,weatherlink.com 1.10,2013-04-03 04:34:00,
2013-04-02 23:49:00,37.1,27.0,30.24,North,355,1.0,2.0,67,0.00,,,0.00,weatherlink.com 1.10,2013-04-03 04:49:00,